createdAt,value
2022-10-26T00:00:37.940Z,6
2022-10-26T00:01:44.297Z,6
2022-10-26T00:02:50.618Z,5.9
2022-10-26T00:03:56.950Z,5.8
2022-10-26T00:05:03.276Z,5.7
2022-10-26T00:06:09.608Z,5.7
2022-10-26T00:07:15.935Z,5.8
2022-10-26T00:08:22.267Z,5.8
2022-10-26T00:09:28.601Z,5.8
2022-10-26T00:10:34.927Z,5.7
2022-10-26T00:11:41.253Z,5.6
2022-10-26T00:12:47.605Z,5.6
2022-10-26T00:13:53.918Z,5.5
2022-10-26T00:15:00.394Z,5.5
2022-10-26T00:16:06.840Z,5.7
2022-10-26T00:17:12.240Z,5.8
2022-10-26T00:18:18.488Z,5.8
2022-10-26T00:19:24.746Z,5.8
2022-10-26T00:20:30.997Z,5.8
2022-10-26T00:21:37.269Z,5.7
2022-10-26T00:22:43.506Z,5.7
2022-10-26T00:23:49.768Z,5.7
2022-10-26T00:24:56.024Z,5.7
2022-10-26T00:26:02.274Z,5.7
2022-10-26T00:27:08.530Z,5.8
2022-10-26T00:28:14.782Z,5.8
2022-10-26T00:29:21.039Z,5.8
2022-10-26T00:30:27.290Z,5.7
2022-10-26T00:31:33.545Z,5.8
2022-10-26T00:32:39.803Z,5.8
2022-10-26T00:33:46.058Z,5.8
2022-10-26T00:34:52.321Z,5.8
2022-10-26T00:35:58.577Z,5.8
2022-10-26T00:37:04.840Z,5.7
2022-10-26T00:38:11.083Z,5.7
2022-10-26T00:39:17.395Z,5.7
2022-10-26T00:40:23.607Z,5.6
2022-10-26T00:41:29.919Z,5.5
2022-10-26T00:42:36.132Z,5.6
2022-10-26T00:43:42.374Z,5.6
2022-10-26T00:44:48.728Z,5.6
2022-10-26T00:45:55.151Z,5.7
2022-10-26T00:47:01.380Z,5.7
2022-10-26T00:48:07.712Z,5.7
2022-10-26T00:49:14.044Z,5.6
2022-10-26T00:50:20.379Z,5.6
2022-10-26T00:51:26.710Z,5.5
2022-10-26T00:52:33.044Z,5.5
2022-10-26T00:53:39.379Z,5.5
2022-10-26T00:54:45.714Z,5.5
2022-10-26T00:55:52.080Z,5.4
2022-10-26T00:56:58.392Z,5.4
2022-10-26T00:58:04.715Z,5.4
2022-10-26T00:59:11.191Z,5.4
2022-10-26T01:00:16.597Z,5.5
2022-10-26T01:01:22.852Z,5.5
2022-10-26T01:02:29.112Z,5.5
2022-10-26T01:03:35.367Z,5.5
2022-10-26T01:04:41.625Z,5.3
2022-10-26T01:05:47.897Z,5.3
2022-10-26T01:06:54.168Z,5.4
2022-10-26T01:08:00.464Z,5.6
2022-10-26T01:09:06.683Z,5.7
2022-10-26T01:10:12.948Z,5.9
2022-10-26T01:11:19.216Z,5.9
2022-10-26T01:12:25.481Z,5.8
2022-10-26T01:13:31.753Z,5.7
2022-10-26T01:14:38.007Z,5.6
2022-10-26T01:15:44.288Z,5.5
2022-10-26T01:16:50.572Z,5.4
2022-10-26T01:17:56.808Z,5.4
2022-10-26T01:19:03.111Z,5.4
2022-10-26T01:20:09.336Z,5.3
2022-10-26T01:21:15.612Z,5.3
2022-10-26T01:22:21.881Z,5.4
2022-10-26T01:23:28.148Z,5.4
2022-10-26T01:24:34.400Z,5.3
2022-10-26T01:25:40.672Z,5.3
2022-10-26T01:26:46.924Z,5.3
2022-10-26T01:27:53.271Z,5.2
2022-10-26T01:28:59.631Z,5.2
2022-10-26T01:30:05.963Z,5.2
2022-10-26T01:31:12.312Z,5.2
2022-10-26T01:32:18.645Z,5.3
2022-10-26T01:33:24.987Z,5.3
2022-10-26T01:34:31.335Z,5.4
2022-10-26T01:35:37.708Z,5.4
2022-10-26T01:36:44.029Z,5.3
2022-10-26T01:37:50.366Z,5.3
2022-10-26T01:38:56.705Z,5.3
2022-10-26T01:40:03.052Z,5.3
2022-10-26T01:41:09.393Z,5.3
2022-10-26T01:42:15.863Z,5.3
2022-10-26T01:43:21.357Z,5.2
2022-10-26T01:44:27.547Z,5.2
2022-10-26T01:45:33.812Z,5.2
2022-10-26T01:46:40.060Z,5.1
2022-10-26T01:47:46.323Z,5.1
2022-10-26T01:48:52.587Z,5.2
2022-10-26T01:49:58.854Z,5.2
2022-10-26T01:51:05.114Z,5.2
2022-10-26T01:52:11.385Z,5.2
2022-10-26T01:53:17.697Z,5.2
2022-10-26T01:54:23.900Z,5.2
2022-10-26T01:55:30.164Z,5.1
2022-10-26T01:56:36.420Z,5.1
2022-10-26T01:57:42.741Z,5
2022-10-26T01:58:48.953Z,4.9
2022-10-26T01:59:55.210Z,5
2022-10-26T02:01:01.483Z,5
2022-10-26T02:02:07.736Z,5
2022-10-26T02:03:14.112Z,5
2022-10-26T02:04:20.289Z,5.1
2022-10-26T02:05:26.538Z,5.1
2022-10-26T02:06:32.813Z,5
2022-10-26T02:07:39.069Z,5
2022-10-26T02:08:45.337Z,5.1
2022-10-26T02:09:51.632Z,5.1
2022-10-26T02:10:58.007Z,5
2022-10-26T02:12:04.284Z,5
2022-10-26T02:13:10.623Z,4.9
2022-10-26T02:14:16.972Z,4.9
2022-10-26T02:15:23.361Z,5
2022-10-26T02:16:29.683Z,5.2
2022-10-26T02:17:35.992Z,5.2
2022-10-26T02:18:42.340Z,5.3
2022-10-26T02:19:48.716Z,5.2
2022-10-26T02:20:55.020Z,5.1
2022-10-26T02:22:01.366Z,5
2022-10-26T02:23:07.710Z,5
2022-10-26T02:24:14.047Z,4.9
2022-10-26T02:25:20.520Z,4.9
2022-10-26T02:26:25.941Z,4.9
2022-10-26T02:27:32.181Z,5
2022-10-26T02:28:38.453Z,5
2022-10-26T02:29:44.719Z,4.9
2022-10-26T02:30:50.974Z,4.9
2022-10-26T02:31:57.265Z,4.9
2022-10-26T02:33:03.528Z,4.8
2022-10-26T02:34:09.772Z,4.8
2022-10-26T02:35:16.043Z,4.7
2022-10-26T02:36:22.307Z,4.7
2022-10-26T02:37:28.570Z,4.7
2022-10-26T02:38:34.827Z,4.9
2022-10-26T02:39:41.090Z,4.9
2022-10-26T02:40:47.376Z,5
2022-10-26T02:41:53.638Z,5
2022-10-26T02:42:59.940Z,4.9
2022-10-26T02:44:06.166Z,4.9
2022-10-26T02:45:12.447Z,4.9
2022-10-26T02:46:18.733Z,5
2022-10-26T02:47:24.975Z,5
2022-10-26T02:48:31.246Z,5
2022-10-26T02:49:37.532Z,5.1
2022-10-26T02:50:43.775Z,5.1
2022-10-26T02:51:50.040Z,5
2022-10-26T02:52:56.309Z,4.9
2022-10-26T02:54:02.665Z,4.9
2022-10-26T02:55:09.014Z,4.9
2022-10-26T02:56:15.348Z,4.8
2022-10-26T02:57:21.691Z,4.8
2022-10-26T02:58:28.039Z,4.7
2022-10-26T02:59:34.389Z,4.7
2022-10-26T03:00:40.730Z,4.7
2022-10-26T03:01:47.085Z,4.7
2022-10-26T03:02:53.429Z,4.8
2022-10-26T03:03:59.787Z,4.8
2022-10-26T03:05:06.122Z,4.8
2022-10-26T03:06:12.471Z,4.8
2022-10-26T03:07:18.819Z,4.8
2022-10-26T03:08:25.288Z,4.9
2022-10-26T03:09:30.712Z,4.8
2022-10-26T03:10:36.952Z,4.8
2022-10-26T03:11:43.222Z,4.8
2022-10-26T03:12:49.490Z,4.8
2022-10-26T03:13:55.766Z,4.7
2022-10-26T03:15:02.033Z,4.6
2022-10-26T03:16:08.306Z,4.5
2022-10-26T03:17:14.570Z,4.5
2022-10-26T03:18:20.837Z,4.5
2022-10-26T03:19:27.106Z,4.5
2022-10-26T03:20:33.393Z,4.5
2022-10-26T03:21:39.682Z,4.6
2022-10-26T03:22:45.949Z,4.6
2022-10-26T03:23:52.210Z,4.7
2022-10-26T03:24:58.486Z,4.7
2022-10-26T03:26:04.782Z,4.7
2022-10-26T03:27:11.025Z,4.7
2022-10-26T03:28:17.330Z,4.7
2022-10-26T03:29:23.577Z,4.6
2022-10-26T03:30:29.862Z,4.6
2022-10-26T03:31:36.137Z,4.6
2022-10-26T03:32:42.415Z,4.6
2022-10-26T03:33:48.692Z,4.7
2022-10-26T03:34:54.973Z,4.7
2022-10-26T03:36:01.250Z,4.7
2022-10-26T03:37:07.596Z,4.8
2022-10-26T03:38:13.962Z,4.7
2022-10-26T03:39:20.317Z,4.6
2022-10-26T03:40:26.652Z,4.6
2022-10-26T03:41:33.005Z,4.5
2022-10-26T03:42:39.353Z,4.5
2022-10-26T03:43:45.702Z,4.4
2022-10-26T03:44:52.052Z,4.4
2022-10-26T03:45:58.403Z,4.4
2022-10-26T03:47:04.756Z,4.4
2022-10-26T03:48:11.102Z,4.5
2022-10-26T03:49:17.454Z,4.7
2022-10-26T03:50:23.816Z,4.9
2022-10-26T03:51:30.288Z,4.9
2022-10-26T03:52:35.724Z,4.8
2022-10-26T03:53:41.977Z,4.7
2022-10-26T03:54:48.249Z,4.6
2022-10-26T03:55:54.535Z,4.5
2022-10-26T03:57:00.822Z,4.5
2022-10-26T03:58:07.086Z,4.4
2022-10-26T03:59:13.363Z,4.5
2022-10-26T04:00:19.634Z,4.5
2022-10-26T04:01:25.915Z,4.6
2022-10-26T04:02:32.217Z,4.5
2022-10-26T04:03:38.467Z,4.6
2022-10-26T04:04:44.737Z,4.6
2022-10-26T04:05:51.049Z,4.6
2022-10-26T04:06:57.342Z,4.6
2022-10-26T04:08:03.558Z,4.6
2022-10-26T04:09:09.819Z,4.6
2022-10-26T04:10:16.126Z,4.6
2022-10-26T04:11:22.375Z,4.5
2022-10-26T04:12:28.627Z,4.6
2022-10-26T04:13:34.899Z,4.5
2022-10-26T04:14:41.166Z,4.4
2022-10-26T04:15:47.462Z,4.4
2022-10-26T04:16:53.719Z,4.3
2022-10-26T04:18:00.049Z,4.3
2022-10-26T04:19:06.333Z,4.3
2022-10-26T04:20:12.632Z,4.3
2022-10-26T04:21:19.019Z,4.2
2022-10-26T04:22:25.322Z,4.2
2022-10-26T04:23:31.674Z,4.1
2022-10-26T04:24:38.020Z,4.2
2022-10-26T04:25:44.466Z,4.2
2022-10-26T04:26:50.714Z,4.2
2022-10-26T04:27:57.079Z,4.2
2022-10-26T04:29:03.484Z,4.3
2022-10-26T04:30:09.787Z,4.3
2022-10-26T04:31:16.178Z,4.4
2022-10-26T04:32:22.473Z,4.4
2022-10-26T04:33:28.860Z,4.4
2022-10-26T04:34:35.312Z,4.4
2022-10-26T04:35:40.711Z,4.3
2022-10-26T04:36:46.997Z,4.3
2022-10-26T04:37:53.282Z,4.3
2022-10-26T04:38:59.544Z,4.3
2022-10-26T04:40:05.841Z,4.4
2022-10-26T04:41:12.160Z,4.4
2022-10-26T04:42:18.397Z,4.5
2022-10-26T04:43:24.638Z,4.4
2022-10-26T04:44:30.931Z,4.5
2022-10-26T04:45:37.191Z,4.5
2022-10-26T04:46:43.510Z,4.5
2022-10-26T04:47:49.749Z,4.5
2022-10-26T04:48:56.028Z,4.5
2022-10-26T04:50:02.304Z,4.5
2022-10-26T04:51:08.661Z,4.4
2022-10-26T04:52:14.900Z,4.4
2022-10-26T04:53:21.179Z,4.4
2022-10-26T04:54:27.446Z,4.3
2022-10-26T04:55:33.691Z,4.3
2022-10-26T04:56:39.950Z,4.2
2022-10-26T04:57:46.236Z,4.3
2022-10-26T04:58:52.527Z,4.2
2022-10-26T04:59:58.779Z,4.2
2022-10-26T05:01:05.048Z,4.2
2022-10-26T05:02:11.362Z,4.1
2022-10-26T05:03:17.699Z,4.2
2022-10-26T05:04:24.017Z,4.2
2022-10-26T05:05:30.411Z,4.2
2022-10-26T05:06:36.733Z,4.2
2022-10-26T05:07:43.092Z,4.2
2022-10-26T05:08:49.420Z,4.2
2022-10-26T05:09:55.779Z,4.4
2022-10-26T05:11:02.188Z,4.3
2022-10-26T05:12:08.517Z,4.4
2022-10-26T05:13:14.823Z,4.4
2022-10-26T05:14:21.179Z,4.4
2022-10-26T05:15:27.569Z,4.2
2022-10-26T05:16:33.898Z,4.3
2022-10-26T05:17:40.369Z,4.3
2022-10-26T05:18:45.783Z,4.3
2022-10-26T05:19:52.061Z,4.3
2022-10-26T05:20:58.354Z,4.2
2022-10-26T05:22:04.610Z,4.2
2022-10-26T05:23:10.885Z,4.2
2022-10-26T05:24:17.161Z,4.2
2022-10-26T05:25:23.429Z,4.1
2022-10-26T05:26:29.697Z,4
2022-10-26T05:27:35.991Z,4
2022-10-26T05:28:42.252Z,3.9
2022-10-26T05:29:48.528Z,4
2022-10-26T05:30:54.819Z,4.1
2022-10-26T05:32:01.082Z,4.1
2022-10-26T05:33:07.367Z,4.1
2022-10-26T05:34:13.631Z,4.2
2022-10-26T05:35:19.933Z,4.2
2022-10-26T05:36:26.231Z,4.2
2022-10-26T05:37:32.535Z,4.2
2022-10-26T05:38:38.777Z,4.1
2022-10-26T05:39:45.019Z,4.2
2022-10-26T05:40:51.321Z,4.1
2022-10-26T05:41:57.578Z,4.3
2022-10-26T05:43:03.893Z,4.3
2022-10-26T05:44:10.155Z,4.3
2022-10-26T05:45:16.449Z,4.3
2022-10-26T05:46:22.826Z,4.2
2022-10-26T05:47:29.150Z,4.3
2022-10-26T05:48:35.512Z,4.3
2022-10-26T05:49:41.863Z,4.2
2022-10-26T05:50:48.236Z,4.2
2022-10-26T05:51:54.687Z,4.2
2022-10-26T05:53:00.998Z,4.2
2022-10-26T05:54:07.309Z,4.3
2022-10-26T05:55:13.656Z,4.6
2022-10-26T05:56:20.019Z,4.6
2022-10-26T05:57:26.368Z,4.6
2022-10-26T05:58:32.731Z,4.5
2022-10-26T05:59:39.057Z,4.5
2022-10-26T06:00:45.544Z,4.4
2022-10-26T06:01:50.959Z,4.4
2022-10-26T06:02:57.225Z,4.3
2022-10-26T06:04:03.516Z,4.3
2022-10-26T06:05:09.779Z,4.4
2022-10-26T06:06:16.080Z,4.4
2022-10-26T06:07:22.331Z,4.4
2022-10-26T06:08:28.608Z,4.4
2022-10-26T06:09:34.927Z,4.3
2022-10-26T06:10:41.188Z,4.4
2022-10-26T06:11:47.445Z,4.5
2022-10-26T06:12:53.731Z,4.6
2022-10-26T06:14:00.006Z,4.7
2022-10-26T06:15:06.296Z,4.8
2022-10-26T06:16:12.571Z,4.9
2022-10-26T06:17:18.848Z,5
2022-10-26T06:18:25.123Z,5.1
2022-10-26T06:19:31.415Z,5.1
2022-10-26T06:20:37.673Z,5.2
2022-10-26T06:21:43.949Z,5.4
2022-10-26T06:22:50.291Z,5.5
2022-10-26T06:23:56.500Z,5.7
2022-10-26T06:25:02.770Z,5.8
2022-10-26T06:26:09.037Z,5.7
2022-10-26T06:27:15.312Z,5.7
2022-10-26T06:28:21.578Z,5.8
2022-10-26T06:29:27.932Z,5.8
2022-10-26T06:30:34.559Z,6
2022-10-26T06:31:40.615Z,6.5
2022-10-26T06:32:47.020Z,7
2022-10-26T06:33:53.292Z,7.5
2022-10-26T06:34:59.622Z,7.8
2022-10-26T06:36:05.953Z,7.8
2022-10-26T06:37:12.274Z,8.1
2022-10-26T06:38:18.584Z,8.4
2022-10-26T06:39:24.901Z,8.7
2022-10-26T06:40:31.209Z,9.2
2022-10-26T06:41:36.485Z,9.4
2022-10-26T06:42:42.700Z,9.6
2022-10-26T06:43:48.934Z,9.8
2022-10-26T06:44:55.127Z,9.5
2022-10-26T06:46:01.334Z,9.5
2022-10-26T06:47:07.546Z,9.6
2022-10-26T06:48:13.731Z,9.2
2022-10-26T06:49:18.955Z,8.8
2022-10-26T06:50:25.158Z,8.5
2022-10-26T06:51:31.364Z,8.4
2022-10-26T06:52:37.557Z,8.3
2022-10-26T06:53:42.769Z,8.2
2022-10-26T06:54:48.958Z,8.5
2022-10-26T06:55:55.159Z,8.6
2022-10-26T06:57:01.358Z,8.5
2022-10-26T06:58:07.559Z,8.5
2022-10-26T06:59:13.759Z,8.6
2022-10-26T07:00:19.965Z,8.8
2022-10-26T07:01:26.150Z,9.2
2022-10-26T07:02:32.399Z,9.5
2022-10-26T07:03:38.548Z,9.4
2022-10-26T07:04:44.752Z,9.5
2022-10-26T07:05:50.949Z,9.6
2022-10-26T07:06:57.151Z,9.9
2022-10-26T07:08:03.419Z,10.5
2022-10-26T07:09:08.538Z,11
2022-10-26T07:10:14.779Z,11.2
2022-10-26T07:11:20.962Z,11.2
2022-10-26T07:12:27.072Z,11.3
2022-10-26T07:13:33.283Z,11.8
2022-10-26T07:14:39.428Z,11.3
2022-10-26T07:15:45.568Z,10.9
2022-10-26T07:16:51.739Z,11.2
2022-10-26T07:17:57.919Z,11.3
2022-10-26T07:19:04.048Z,11.8
2022-10-26T07:20:10.202Z,11.7
2022-10-26T07:21:16.454Z,11.5
2022-10-26T07:22:22.499Z,12.2
2022-10-26T07:23:27.665Z,12.9
2022-10-26T07:24:33.789Z,13.5
2022-10-26T07:25:39.932Z,13.9
2022-10-26T07:26:46.051Z,14.3
2022-10-26T07:27:52.196Z,14.3
2022-10-26T07:28:58.296Z,14.2
2022-10-26T07:30:04.447Z,14.5
2022-10-26T07:31:10.567Z,14.4
2022-10-26T07:32:16.671Z,14.4
2022-10-26T07:33:22.715Z,14.4
2022-10-26T07:34:28.862Z,15
2022-10-26T07:35:34.938Z,15.3
2022-10-26T07:36:40.976Z,15.5
2022-10-26T07:37:47.063Z,15.8
2022-10-26T07:38:53.139Z,15.9
2022-10-26T07:39:59.219Z,15.8
2022-10-26T07:41:05.320Z,15.2
2022-10-26T07:42:11.362Z,14.7
2022-10-26T07:43:17.422Z,14.9
2022-10-26T07:44:23.488Z,15
2022-10-26T07:45:29.563Z,14.8
2022-10-26T07:46:35.625Z,15
2022-10-26T07:47:41.708Z,15
2022-10-26T07:48:47.775Z,14.1
2022-10-26T07:49:53.843Z,13.6
2022-10-26T07:50:59.887Z,13.5
2022-10-26T07:52:06.006Z,13.1
2022-10-26T07:53:12.060Z,12.5
2022-10-26T07:54:18.125Z,12.2
2022-10-26T07:55:24.214Z,12.1
2022-10-26T07:56:30.310Z,11.9
2022-10-26T07:57:36.421Z,12.1
2022-10-26T07:58:42.510Z,12.3
2022-10-26T07:59:48.600Z,12.4
2022-10-26T08:00:54.758Z,12.4
2022-10-26T08:02:00.834Z,12.4
2022-10-26T08:03:06.950Z,12.5
2022-10-26T08:04:13.174Z,12.2
2022-10-26T08:05:18.434Z,11.9
2022-10-26T08:06:24.532Z,12.2
2022-10-26T08:07:29.699Z,12.3
2022-10-26T08:08:35.761Z,12.4
2022-10-26T08:09:40.941Z,12.2
2022-10-26T08:10:46.105Z,12.1
2022-10-26T08:11:51.286Z,12.3
2022-10-26T08:12:56.543Z,12.4
2022-10-26T08:14:02.618Z,12.4
2022-10-26T08:15:08.745Z,12.5
2022-10-26T08:16:14.891Z,12.6
2022-10-26T08:17:21.039Z,12.7
2022-10-26T08:18:27.183Z,12.7
2022-10-26T08:19:33.333Z,12.4
2022-10-26T08:20:39.486Z,12.4
2022-10-26T08:21:45.641Z,12.3
2022-10-26T08:22:51.791Z,12.3
2022-10-26T08:23:57.963Z,12.4
2022-10-26T08:25:04.109Z,12.2
2022-10-26T08:26:10.261Z,12.4
2022-10-26T08:27:15.433Z,12.5
2022-10-26T08:28:21.638Z,12.5
2022-10-26T08:29:27.750Z,12.4
2022-10-26T08:30:33.917Z,12.4
2022-10-26T08:31:40.063Z,12.4
2022-10-26T08:32:46.252Z,12.5
2022-10-26T08:33:52.417Z,12.4
2022-10-26T08:34:58.545Z,12.7
2022-10-26T08:36:04.692Z,12.8
2022-10-26T08:37:10.927Z,12.9
2022-10-26T08:38:17.082Z,13.1
2022-10-26T08:39:23.168Z,13.8
2022-10-26T08:40:29.324Z,13.8
2022-10-26T08:41:34.496Z,13.7
2022-10-26T08:42:40.660Z,13.7
2022-10-26T08:43:46.778Z,13.5
2022-10-26T08:44:53.032Z,13.5
2022-10-26T08:45:59.143Z,13.4
2022-10-26T08:47:05.229Z,13
2022-10-26T08:48:11.419Z,13
2022-10-26T08:49:17.532Z,13.1
2022-10-26T08:50:23.692Z,13.1
2022-10-26T08:51:29.846Z,13
2022-10-26T08:52:35.992Z,13.3
2022-10-26T08:53:42.124Z,13.8
2022-10-26T08:54:48.283Z,14
2022-10-26T08:55:53.438Z,14.5
2022-10-26T08:56:59.645Z,14.9
2022-10-26T08:58:05.791Z,15.3
2022-10-26T08:59:11.838Z,15.9
2022-10-26T09:00:17.960Z,15.7
2022-10-26T09:01:24.081Z,15.9
2022-10-26T09:02:30.221Z,15.6
2022-10-26T09:03:36.394Z,15.5
2022-10-26T09:04:42.433Z,16
2022-10-26T09:05:48.545Z,16.3
2022-10-26T09:06:54.681Z,15.8
2022-10-26T09:08:00.784Z,15.1
2022-10-26T09:09:06.897Z,15
2022-10-26T09:10:13.023Z,15
2022-10-26T09:11:19.121Z,15.7
2022-10-26T09:12:25.237Z,15.9
2022-10-26T09:13:31.344Z,16.3
2022-10-26T09:14:37.450Z,16.5
2022-10-26T09:15:43.553Z,16.2
2022-10-26T09:16:49.661Z,16.2
2022-10-26T09:17:55.758Z,15.7
2022-10-26T09:19:01.865Z,15.7
2022-10-26T09:20:08.008Z,16
2022-10-26T09:21:14.088Z,15.4
2022-10-26T09:22:20.203Z,15.3
2022-10-26T09:23:26.350Z,15.4
2022-10-26T09:24:32.420Z,15.6
2022-10-26T09:25:38.543Z,15.7
2022-10-26T09:26:44.697Z,15.4
2022-10-26T09:27:50.811Z,15
2022-10-26T09:28:56.900Z,15.3
2022-10-26T09:30:03.009Z,15.1
2022-10-26T09:31:09.145Z,15.3
2022-10-26T09:32:15.279Z,15.5
2022-10-26T09:33:21.396Z,15.4
2022-10-26T09:34:27.486Z,15.4
2022-10-26T09:35:33.602Z,15.6
2022-10-26T09:36:39.843Z,15.9
2022-10-26T09:37:45.004Z,16.2
2022-10-26T09:38:51.137Z,16.2
2022-10-26T09:39:56.311Z,15.6
2022-10-26T09:41:02.407Z,15.2
2022-10-26T09:42:08.527Z,15.3
2022-10-26T09:43:14.698Z,15.4
2022-10-26T09:44:20.802Z,15.7
2022-10-26T09:45:26.913Z,15.6
2022-10-26T09:46:33.051Z,15.5
2022-10-26T09:47:39.176Z,15.7
2022-10-26T09:48:45.315Z,15.8
2022-10-26T09:49:50.517Z,16.2
2022-10-26T09:50:56.600Z,16
2022-10-26T09:52:02.788Z,16.1
2022-10-26T09:53:08.849Z,15.9
2022-10-26T09:54:14.984Z,15.6
2022-10-26T09:55:20.152Z,15.6
2022-10-26T09:56:26.285Z,15.5
2022-10-26T09:57:32.403Z,15.3
2022-10-26T09:58:38.513Z,15.5
2022-10-26T09:59:44.632Z,15.4
2022-10-26T10:00:50.769Z,15.7
2022-10-26T10:01:56.944Z,15.7
2022-10-26T10:03:03.030Z,15.7
2022-10-26T10:04:09.164Z,15.6
2022-10-26T10:05:15.292Z,15.3
2022-10-26T10:06:21.444Z,15.5
2022-10-26T10:07:27.557Z,15.3
2022-10-26T10:08:33.690Z,15.5
2022-10-26T10:09:38.861Z,15.6
2022-10-26T10:10:44.960Z,15.6
2022-10-26T10:11:51.104Z,15.5
2022-10-26T10:12:57.250Z,16
2022-10-26T10:14:03.373Z,16.4
2022-10-26T10:15:09.501Z,16.4
2022-10-26T10:16:15.645Z,16.6
2022-10-26T10:17:21.771Z,16.3
2022-10-26T10:18:27.915Z,16.5
2022-10-26T10:19:34.043Z,16.6
2022-10-26T10:20:40.173Z,16.2
2022-10-26T10:21:46.327Z,15.7
2022-10-26T10:22:52.484Z,15.9
2022-10-26T10:23:58.573Z,15.8
2022-10-26T10:25:03.717Z,16
2022-10-26T10:26:09.848Z,16.3
2022-10-26T10:27:15.992Z,16.5
2022-10-26T10:28:22.100Z,16.9
2022-10-26T10:29:28.235Z,17.2
2022-10-26T10:30:34.353Z,17.4
2022-10-26T10:31:40.484Z,17.5
2022-10-26T10:32:46.608Z,17.6
2022-10-26T10:33:52.729Z,17.5
2022-10-26T10:34:58.856Z,17.3
2022-10-26T10:36:04.973Z,17.3
2022-10-26T10:37:11.091Z,17.2
2022-10-26T10:38:17.219Z,17.5
2022-10-26T10:39:23.340Z,17.2
2022-10-26T10:40:29.501Z,17.4
2022-10-26T10:41:35.580Z,17.6
2022-10-26T10:42:41.699Z,17.2
2022-10-26T10:43:47.825Z,17.1
2022-10-26T10:44:53.946Z,17.1
2022-10-26T10:46:00.086Z,17.2
2022-10-26T10:47:06.187Z,17
2022-10-26T10:48:12.301Z,17.1
2022-10-26T10:49:18.416Z,17.4
2022-10-26T10:50:24.537Z,17.5
2022-10-26T10:51:30.664Z,17.1
2022-10-26T10:52:36.798Z,17.5
2022-10-26T10:53:42.912Z,17.3
2022-10-26T10:54:49.037Z,17
2022-10-26T10:55:55.214Z,17.1
2022-10-26T10:57:01.276Z,17.5
2022-10-26T10:58:07.442Z,17.5
2022-10-26T10:59:13.563Z,17.5
2022-10-26T11:00:19.647Z,17.6
2022-10-26T11:01:25.769Z,17.9
2022-10-26T11:02:31.881Z,18.2
2022-10-26T11:03:37.999Z,18.2
2022-10-26T11:04:44.102Z,18.4
2022-10-26T11:05:50.345Z,17.8
2022-10-26T11:06:55.494Z,17.8
2022-10-26T11:08:01.630Z,18.1
2022-10-26T11:09:07.745Z,18.2
2022-10-26T11:10:13.889Z,18.2
2022-10-26T11:11:19.933Z,18.5
2022-10-26T11:12:26.053Z,18.5
2022-10-26T11:13:32.132Z,18.8
2022-10-26T11:14:38.242Z,18.7
2022-10-26T11:15:44.345Z,18.5
2022-10-26T11:16:50.480Z,17.8
2022-10-26T11:17:56.567Z,17.8
2022-10-26T11:19:02.666Z,18.1
2022-10-26T11:20:08.801Z,18.2
2022-10-26T11:21:14.883Z,18.3
2022-10-26T11:22:20.999Z,18.2
2022-10-26T11:23:27.088Z,18.4
2022-10-26T11:24:33.207Z,18.4
2022-10-26T11:25:39.295Z,18.2
2022-10-26T11:26:45.410Z,18.2
2022-10-26T11:27:51.506Z,18.1
2022-10-26T11:28:57.609Z,18.3
2022-10-26T11:30:03.736Z,18.3
2022-10-26T11:31:09.826Z,18.1
2022-10-26T11:32:15.993Z,17.8
2022-10-26T11:33:22.045Z,17.7
2022-10-26T11:34:28.248Z,17.6
2022-10-26T11:35:33.422Z,17.5
2022-10-26T11:36:39.511Z,17.7
2022-10-26T11:37:45.657Z,18.1
2022-10-26T11:38:51.742Z,18.7
2022-10-26T11:39:57.838Z,19.3
2022-10-26T11:41:03.954Z,19.3
2022-10-26T11:42:10.053Z,18.7
2022-10-26T11:43:16.159Z,18.6
2022-10-26T11:44:22.271Z,18.7
2022-10-26T11:45:28.381Z,18.5
2022-10-26T11:46:34.483Z,18.4
2022-10-26T11:47:40.606Z,18.3
2022-10-26T11:48:46.692Z,18.5
2022-10-26T11:49:52.847Z,19
2022-10-26T11:50:58.965Z,19.3
2022-10-26T11:52:05.013Z,19.7
2022-10-26T11:53:11.143Z,20.2
2022-10-26T11:54:17.312Z,20.2
2022-10-26T11:55:23.310Z,20.2
2022-10-26T11:56:29.409Z,19.5
2022-10-26T11:57:35.561Z,18.9
2022-10-26T11:58:41.643Z,18.7
2022-10-26T11:59:47.698Z,19
2022-10-26T12:00:53.783Z,19.1
2022-10-26T12:01:59.968Z,18.7
2022-10-26T12:03:06.077Z,18.3
2022-10-26T12:04:12.228Z,18.1
2022-10-26T12:05:18.393Z,18.1
2022-10-26T12:06:24.576Z,18.5
2022-10-26T12:07:29.745Z,18.6
2022-10-26T12:08:35.848Z,19.1
2022-10-26T12:09:41.964Z,19.2
2022-10-26T12:10:48.044Z,19.2
2022-10-26T12:11:54.130Z,19.3
2022-10-26T12:13:00.259Z,19.4
2022-10-26T12:14:06.327Z,19.3
2022-10-26T12:15:12.415Z,19.4
2022-10-26T12:16:18.813Z,19.7
2022-10-26T12:17:24.612Z,19.5
2022-10-26T12:18:30.697Z,19.1
2022-10-26T12:19:36.794Z,18.9
2022-10-26T12:20:42.890Z,19.1
2022-10-26T12:21:48.978Z,19.1
2022-10-26T12:22:55.085Z,18.6
2022-10-26T12:24:01.178Z,18.3
2022-10-26T12:25:07.270Z,18.9
2022-10-26T12:26:13.381Z,18.4
2022-10-26T12:27:19.520Z,18.2
2022-10-26T12:28:25.566Z,18.2
2022-10-26T12:29:31.667Z,18
2022-10-26T12:30:37.753Z,18
2022-10-26T12:31:43.857Z,17.9
2022-10-26T12:32:49.953Z,18
2022-10-26T12:33:56.054Z,18
2022-10-26T12:35:02.234Z,18.1
2022-10-26T12:36:07.410Z,18
2022-10-26T12:37:13.510Z,17.9
2022-10-26T12:38:19.619Z,17.9
2022-10-26T12:39:25.717Z,17.9
2022-10-26T12:40:31.822Z,17.8
2022-10-26T12:41:37.937Z,18
2022-10-26T12:42:44.028Z,18.6
2022-10-26T12:43:50.140Z,19
2022-10-26T12:44:56.245Z,19.3
2022-10-26T12:46:02.350Z,19.6
2022-10-26T12:47:08.466Z,19.8
2022-10-26T12:48:14.581Z,19.8
2022-10-26T12:49:20.739Z,19.3
2022-10-26T12:50:26.786Z,18.9
2022-10-26T12:51:32.937Z,19.2
2022-10-26T12:52:39.037Z,19.2
2022-10-26T12:53:45.124Z,18.8
2022-10-26T12:54:51.214Z,18.8
2022-10-26T12:55:57.323Z,18.6
2022-10-26T12:57:03.416Z,18.6
2022-10-26T12:58:09.511Z,18.5
2022-10-26T12:59:15.611Z,18.6
2022-10-26T13:00:21.707Z,18.8
2022-10-26T13:01:27.858Z,18.9
2022-10-26T13:02:33.949Z,18.9
2022-10-26T13:03:40.066Z,18.9
2022-10-26T13:04:46.268Z,18.9
2022-10-26T13:05:52.415Z,19
2022-10-26T13:06:58.615Z,18.7
2022-10-26T13:08:04.768Z,18.3
2022-10-26T13:09:10.937Z,18.2
2022-10-26T13:10:16.111Z,18.1
2022-10-26T13:11:22.203Z,17.8
2022-10-26T13:12:28.305Z,17.9
2022-10-26T13:13:34.422Z,17.9
2022-10-26T13:14:40.504Z,18.1
2022-10-26T13:15:46.680Z,18
2022-10-26T13:16:52.704Z,18.2
2022-10-26T13:17:58.809Z,18.1
2022-10-26T13:19:04.912Z,18.1
2022-10-26T13:20:11.018Z,17.8
2022-10-26T13:21:17.111Z,17.6
2022-10-26T13:22:23.259Z,17.6
2022-10-26T13:23:29.323Z,17.8
2022-10-26T13:24:35.421Z,17.8
2022-10-26T13:25:41.540Z,17.8
2022-10-26T13:26:47.646Z,17.8
2022-10-26T13:27:53.761Z,17.8
2022-10-26T13:28:59.846Z,17.9
2022-10-26T13:30:05.994Z,17.9
2022-10-26T13:31:12.070Z,17.9
2022-10-26T13:32:18.222Z,17.9
2022-10-26T13:33:24.292Z,17.9
2022-10-26T13:34:30.465Z,17.9
2022-10-26T13:35:36.495Z,17.8
2022-10-26T13:36:42.606Z,17.6
2022-10-26T13:37:48.804Z,17.5
2022-10-26T13:38:53.986Z,17.6
2022-10-26T13:40:00.093Z,17.5
2022-10-26T13:41:06.193Z,17.5
2022-10-26T13:42:12.317Z,17.5
2022-10-26T13:43:18.470Z,17.4
2022-10-26T13:44:24.535Z,17.3
2022-10-26T13:45:30.634Z,17.2
2022-10-26T13:46:36.755Z,17.1
2022-10-26T13:47:42.888Z,17
2022-10-26T13:48:48.967Z,16.8
2022-10-26T13:49:55.080Z,16.8
2022-10-26T13:51:01.189Z,16.7
2022-10-26T13:52:07.301Z,16.6
2022-10-26T13:53:13.402Z,16.6
2022-10-26T13:54:19.538Z,16.7
2022-10-26T13:55:25.637Z,16.7
2022-10-26T13:56:31.757Z,16.8
2022-10-26T13:57:37.944Z,16.8
2022-10-26T13:58:44.008Z,16.8
2022-10-26T13:59:50.101Z,16.8
2022-10-26T14:00:56.225Z,16.8
2022-10-26T14:02:02.351Z,16.8
2022-10-26T14:03:08.466Z,16.8
2022-10-26T14:04:14.856Z,16.8
2022-10-26T14:05:20.704Z,16.9
2022-10-26T14:06:26.925Z,16.8
2022-10-26T14:07:33.147Z,16.8
2022-10-26T14:08:38.334Z,16.8
2022-10-26T14:09:44.423Z,16.8
2022-10-26T14:10:50.561Z,16.7
2022-10-26T14:11:56.676Z,16.8
2022-10-26T14:13:02.817Z,16.8
2022-10-26T14:14:08.932Z,16.7
2022-10-26T14:15:15.141Z,16.7
2022-10-26T14:16:21.254Z,16.8
2022-10-26T14:17:27.297Z,16.8
2022-10-26T14:18:33.421Z,17
2022-10-26T14:19:39.571Z,17.1
2022-10-26T14:20:45.731Z,17.1
2022-10-26T14:21:51.807Z,17.1
2022-10-26T14:22:57.935Z,17.1
2022-10-26T14:24:04.045Z,17.1
2022-10-26T14:25:10.173Z,17.1
2022-10-26T14:26:16.327Z,17.2
2022-10-26T14:27:21.450Z,17.2
2022-10-26T14:28:27.572Z,17.2
2022-10-26T14:29:33.688Z,17.3
2022-10-26T14:30:39.824Z,17.2
2022-10-26T14:31:45.944Z,17.3
2022-10-26T14:32:52.063Z,17.4
2022-10-26T14:33:58.181Z,17.4
2022-10-26T14:35:04.337Z,17.3
2022-10-26T14:36:10.434Z,17.3
2022-10-26T14:37:16.560Z,17.2
2022-10-26T14:38:21.726Z,17.1
2022-10-26T14:39:26.881Z,17.1
2022-10-26T14:40:33.009Z,17
2022-10-26T14:41:39.155Z,17
2022-10-26T14:42:45.264Z,16.9
2022-10-26T14:43:51.397Z,16.8
2022-10-26T14:44:57.558Z,16.7
2022-10-26T14:46:03.669Z,16.7
2022-10-26T14:47:09.780Z,16.7
2022-10-26T14:48:15.934Z,16.7
2022-10-26T14:49:22.057Z,16.7
2022-10-26T14:50:28.188Z,16.5
2022-10-26T14:51:34.308Z,16.5
2022-10-26T14:52:40.439Z,16.4
2022-10-26T14:53:46.618Z,16.3
2022-10-26T14:54:52.713Z,16.2
2022-10-26T14:55:58.846Z,16.2
2022-10-26T14:57:04.018Z,16.1
2022-10-26T14:58:10.125Z,16.1
2022-10-26T14:59:16.326Z,16